Time;durP1;ratioP1;P1;durP2;ratioP2;P2;SDS_P1;SDS_P2;PMS_P1;PMS_P2;Temp;Humidity;BMP_temperature;BMP_pressure;BME280_temperature;BME280_humidity;BME280_pressure;Samples;Min_cycle;Max_cycle;Signal;HPM_P1;HPM_P2
2024/01/23 07:37:50;;;;;;;20.55;2.83;;;;;;;3.88;91.63;97737.88;2082962;28;20581;-73
2024/01/23 07:38:52;;;;;;;29.50;2.30;;;;;;;4.05;90.24;97730.13;2079374;28;20197;-73
2024/01/23 07:39:53;;;;;;;13.35;2.35;;;;;;;4.30;89.08;97739.56;2075849;28;20221;-72
2024/01/23 07:41:58;;;;;;;11.20;2.50;;;;;;;4.59;87.81;97739.47;2083410;28;21272;-71
2024/01/23 08:02:13;;;;;;;12.93;2.83;;;;;;;3.99;92.90;97766.31;2084670;27;20562;-63
2024/01/23 08:03:14;;;;;;;11.38;1.75;;;;;;;4.73;90.19;97773.91;2078779;28;20555;-63
2024/01/23 08:04:16;;;;;;;21.40;2.88;;;;;;;5.16;87.60;97767.72;2077699;28;20202;-62
2024/01/23 08:05:18;;;;;;;22.65;2.53;;;;;;;5.50;85.53;97744.19;2072989;28;20720;-63
2024/01/23 08:06:20;;;;;;;10.65;2.45;;;;;;;6.04;83.11;97768.88;2070669;28;20266;-63
2024/01/23 08:07:22;;;;;;;21.60;2.40;;;;;;;6.41;81.40;97773.72;2073775;28;20197;-63
2024/01/23 08:08:23;;;;;;;10.57;2.28;;;;;;;6.48;80.50;97771.94;2070529;28;20225;-63
2024/01/23 08:09:25;;;;;;;9.43;2.17;;;;;;;6.64;79.53;97768.28;2069958;28;20852;-63
2024/01/23 08:10:26;;;;;;;17.35;2.95;;;;;;;6.72;79.45;97759.53;2074232;28;20235;-63
2024/01/23 08:11:28;;;;;;;10.10;1.85;;;;;;;7.11;78.08;97771.19;2072897;28;20421;-64
2024/01/23 08:12:29;;;;;;;20.88;2.53;;;;;;;7.16;77.75;97776.31;2069972;28;20202;-63
2024/01/23 08:13:31;;;;;;;11.18;1.70;;;;;;;7.19;76.86;97777.16;2074894;28;20197;-63
2024/01/23 08:14:32;;;;;;;15.38;2.80;;;;;;;7.07;76.65;97774.69;2074000;28;20225;-64
2024/01/23 08:15:34;;;;;;;18.55;2.15;;;;;;;6.82;77.85;97780.19;2069294;28;20610;-63
2024/01/23 08:16:36;;;;;;;19.33;2.70;;;;;;;7.00;77.76;97793.84;2072824;28;20229;-63
2024/01/23 08:17:37;;;;;;;12.75;2.28;;;;;;;7.05;77.00;97760.88;2088076;28;20223;-63
2024/01/23 08:18:39;;;;;;;10.35;2.13;;;;;;;6.82;77.79;97789.75;2082347;28;20287;-65
2024/01/23 08:19:40;;;;;;;9.40;2.15;;;;;;;6.45;78.81;97787.50;2070949;28;20225;-64
2024/01/23 08:20:42;;;;;;;14.30;2.40;;;;;;;5.81;80.52;97780.25;2068575;28;20727;-64
2024/01/23 08:21:45;;;;;;;14.38;1.40;;;;;;;5.83;81.96;97790.63;2086395;28;20208;-63
2024/01/23 08:22:47;;;;;;;17.38;2.17;;;;;;;6.03;81.35;97787.88;2089332;28;20630;-64
2024/01/23 08:23:49;;;;;;;8.27;1.70;;;;;;;5.90;81.71;97800.06;2074026;28;20797;-63
2024/01/23 08:24:51;;;;;;;13.13;2.05;;;;;;;5.47;82.79;97793.47;2071820;28;20291;-64
2024/01/23 08:25:53;;;;;;;17.88;2.42;;;;;;;5.21;84.43;97809.13;2072253;28;20201;-64
2024/01/23 08:26:55;;;;;;;11.90;2.03;;;;;;;5.01;85.75;97804.03;2070599;28;20197;-64
2024/01/23 08:27:56;;;;;;;10.30;1.90;;;;;;;4.69;86.47;97807.59;2071240;28;20721;-64
2024/01/23 08:28:59;;;;;;;18.90;2.33;;;;;;;4.53;87.71;97807.63;2087923;28;20286;-64
2024/01/23 08:30:01;;;;;;;15.27;3.03;;;;;;;4.47;88.67;97814.53;2078608;28;20227;-63
2024/01/23 08:31:04;;;;;;;17.38;3.15;;;;;;;4.57;89.12;97813.63;2074087;28;20204;-63
2024/01/23 08:32:06;;;;;;;14.43;2.58;;;;;;;4.90;88.31;97809.25;2069639;28;20296;-63
2024/01/23 08:33:08;;;;;;;8.55;2.05;;;;;;;4.94;87.61;97812.69;2070620;28;20190;-65
2024/01/23 08:34:09;;;;;;;18.27;2.88;;;;;;;4.72;87.97;97818.81;2064848;28;20607;-66
2024/01/23 08:35:11;;;;;;;17.80;2.40;;;;;;;4.46;89.01;97805.91;2070683;28;20207;-65
2024/01/23 08:36:12;;;;;;;11.98;2.15;;;;;;;4.29;90.00;97820.59;2071148;28;20196;-65
2024/01/23 08:45:48;;;;;;;10.30;2.53;;;;;;;3.75;94.36;97809.38;2084890;28;20557;-66
2024/01/23 08:46:50;;;;;;;9.02;2.35;;;;;;;3.88;93.92;97807.66;2083285;28;20224;-66
2024/01/23 08:47:51;;;;;;;14.85;1.92;;;;;;;4.28;93.05;97819.75;2080448;28;20226;-67
2024/01/23 08:48:53;;;;;;;7.45;1.40;;;;;;;4.49;91.32;97815.41;2081702;28;20193;-67
2024/01/23 08:49:54;;;;;;;9.75;1.80;;;;;;;4.47;90.86;97817.13;2071912;28;20225;-67
2024/01/23 08:50:57;;;;;;;10.93;2.13;;;;;;;4.36;90.79;97818.00;2070297;28;20202;-67
2024/01/23 08:51:58;;;;;;;9.30;2.65;;;;;;;4.39;91.15;97828.34;2081033;28;20574;-67
2024/01/23 08:53:00;;;;;;;10.50;1.95;;;;;;;4.36;91.35;97828.34;2081358;28;20720;-67
2024/01/23 08:54:03;;;;;;;14.40;1.90;;;;;;;4.27;91.51;97820.59;2070132;28;20205;-67
2024/01/23 08:55:05;;;;;;;9.23;1.95;;;;;;;4.32;91.63;97828.38;2069895;28;20936;-66
2024/01/23 09:07:22;;;;;;;7.70;1.67;;;;;;;3.89;95.00;97839.56;2099321;27;20550;-67
2024/01/23 09:08:24;;;;;;;10.27;1.55;;;;;;;3.97;95.33;97845.56;2103256;28;20202;-67
2024/01/23 09:14:20;;;;;;;10.35;1.48;;;;;;;4.15;94.44;97859.38;2077963;28;20554;-74
2024/01/23 09:15:22;;;;;;;21.02;2.45;;;;;;;4.19;93.98;97869.72;2081502;28;20200;-78
2024/01/23 09:16:23;;;;;;;7.45;2.55;;;;;;;4.24;93.71;97864.53;2081462;28;20640;-75
2024/01/23 09:26:00;;;;;;;8.73;1.40;;;;;;;3.97;95.70;97892.09;2100465;27;20554;-72
2024/01/23 09:27:03;;;;;;;5.78;1.40;;;;;;;3.91;95.21;97876.56;2097802;28;20191;-74
2024/01/23 09:33:00;;;;;;;8.13;1.15;;;;;;;4.06;95.43;97873.16;2101051;27;20536;-73
2024/01/23 09:34:02;;;;;;;6.88;1.65;;;;;;;4.29;95.63;97904.22;2098104;28;20248;-72
2024/01/23 09:35:04;;;;;;;9.75;1.60;;;;;;;4.29;94.78;97893.88;2090877;28;20220;-73
2024/01/23 09:36:06;;;;;;;18.77;9.43;;;;;;;4.44;94.59;97893.00;2090920;28;20706;-73
2024/01/23 09:37:07;;;;;;;16.90;5.53;;;;;;;4.52;94.02;97903.34;2090612;28;20201;-70
2024/01/23 09:38:09;;;;;;;12.30;2.45;;;;;;;5.30;92.27;97883.34;2091775;28;20204;-75
2024/01/23 09:39:13;;;;;;;6.95;2.90;;;;;;;5.99;88.94;97919.31;2083188;28;20197;-71
2024/01/23 09:40:15;;;;;;;8.18;1.23;;;;;;;6.75;84.78;97915.28;2075488;28;20225;-71
2024/01/23 09:41:18;;;;;;;5.53;0.98;;;;;;;7.23;81.63;97913.06;2089517;28;20192;-71
2024/01/23 09:42:25;;;;;;;4.97;0.90;;;;;;;8.10;79.54;97919.78;2087493;28;20283;-71
2024/01/23 09:43:30;;;;;;;4.15;1.00;;;;;;;8.43;76.08;97910.59;2082451;28;20202;-71
2024/01/23 09:44:32;;;;;;;4.88;1.27;;;;;;;8.89;75.49;97909.00;2081354;28;20229;-72
2024/01/23 09:45:38;;;;;;;3.60;1.20;;;;;;;9.09;74.46;97919.06;2080907;28;20197;-71
2024/01/23 09:46:42;;;;;;;8.45;1.20;;;;;;;9.01;73.93;97926.16;2080762;28;20882;-71
2024/01/23 09:47:47;;;;;;;4.85;1.65;;;;;;;8.80;73.75;97930.84;2087943;28;20702;-72
2024/01/23 09:48:49;;;;;;;6.57;1.10;;;;;;;8.69;74.40;97927.56;2079719;28;20193;-71
2024/01/23 09:49:51;;;;;;;6.25;0.88;;;;;;;7.94;75.61;97930.41;2078961;28;20229;-71
2024/01/23 09:50:55;;;;;;;7.05;1.25;;;;;;;8.43;75.40;97918.41;2087536;28;20200;-71
2024/01/23 09:52:02;;;;;;;12.85;1.55;;;;;;;8.91;72.58;97914.19;2080665;28;20202;-71
2024/01/23 09:53:05;;;;;;;5.30;1.38;;;;;;;8.77;72.37;97910.09;2076792;28;20205;-71
2024/01/23 09:54:10;;;;;;;7.47;1.67;;;;;;;9.27;72.10;97917.00;2076218;28;20201;-71
2024/01/23 09:55:12;;;;;;;5.38;1.70;;;;;;;9.36;70.61;97915.94;2078856;28;20243;-72
2024/01/23 09:56:14;;;;;;;13.32;3.45;;;;;;;9.38;70.69;97914.19;2081252;28;20692;-71
2024/01/23 09:57:16;;;;;;;16.23;3.28;;;;;;;9.51;70.29;97910.44;2076976;28;20197;-71
2024/01/23 09:58:18;;;;;;;10.30;1.80;;;;;;;10.38;69.11;97903.38;2077368;28;20231;-72
2024/01/23 09:59:21;;;;;;;15.57;2.15;;;;;;;10.73;68.06;97909.50;2074668;28;20205;-71
2024/01/23 10:00:22;;;;;;;13.38;3.05;;;;;;;10.74;66.02;97909.44;2077506;28;20284;-72
2024/01/23 10:01:28;;;;;;;11.10;1.77;;;;;;;10.81;66.62;97917.13;2079756;28;20253;-72
2024/01/23 10:02:30;;;;;;;11.05;2.22;;;;;;;10.29;67.44;97899.19;2081304;28;20197;-71
2024/01/23 10:03:34;;;;;;;14.65;2.45;;;;;;;10.10;67.33;97915.25;2079236;28;20289;-72
2024/01/23 10:04:36;;;;;;;13.57;2.25;;;;;;;10.05;67.25;97874.50;2071202;28;20767;-72
2024/01/23 10:05:38;;;;;;;16.15;2.97;;;;;;;11.26;65.90;97903.72;2080642;28;20200;-71
2024/01/23 10:06:41;;;;;;;9.95;2.17;;;;;;;10.73;65.50;97906.88;2076158;28;20203;-71
2024/01/23 10:07:44;;;;;;;15.30;2.67;;;;;;;11.15;65.13;97895.31;2080857;28;20245;-71
2024/01/23 10:08:46;;;;;;;8.98;1.90;;;;;;;10.66;64.44;97911.38;2081220;28;20199;-72
2024/01/23 10:09:48;;;;;;;16.15;1.92;;;;;;;10.91;64.65;97898.56;2080555;28;20213;-71
2024/01/23 10:10:58;;;;;;;14.90;2.40;;;;;;;11.52;62.88;97900.41;2087583;28;20228;-71
2024/01/23 10:11:59;;;;;;;13.93;2.35;;;;;;;11.37;63.01;97900.81;2076480;28;20195;-71
2024/01/23 10:13:02;;;;;;;20.35;2.65;;;;;;;11.82;62.91;97903.03;2078738;28;20209;-72
2024/01/23 10:14:06;;;;;;;16.13;2.05;;;;;;;11.54;62.83;97902.97;2086688;28;20199;-72
2024/01/23 10:15:11;;;;;;;17.70;2.67;;;;;;;10.80;63.95;97912.81;2087401;28;20386;-71
2024/01/23 10:16:15;;;;;;;12.52;1.90;;;;;;;9.73;66.71;97915.22;2079025;28;20208;-71
2024/01/23 10:17:16;;;;;;;8.50;2.10;;;;;;;9.23;69.31;97916.22;2080942;28;20206;-71
2024/01/23 10:18:18;;;;;;;9.73;2.22;;;;;;;8.62;70.41;97928.56;2083329;28;20209;-71
2024/01/23 10:19:19;;;;;;;8.93;1.95;;;;;;;9.08;69.82;97932.97;2077157;28;20193;-71
2024/01/23 10:20:21;;;;;;;9.75;2.08;;;;;;;9.01;69.48;97928.75;2076991;28;20678;-71
2024/01/23 10:21:23;;;;;;;14.38;2.20;;;;;;;9.76;68.89;97931.69;2083499;28;20193;-71
2024/01/23 10:22:25;;;;;;;14.50;2.80;;;;;;;9.80;68.23;97917.66;2084326;28;20208;-71
2024/01/23 10:23:27;;;;;;;10.02;2.42;;;;;;;10.22;67.59;97941.97;2079956;28;20193;-71
2024/01/23 10:24:31;;;;;;;11.80;2.50;;;;;;;10.41;66.70;97932.88;2079122;28;20193;-72
2024/01/23 10:25:33;;;;;;;20.30;2.75;;;;;;;9.87;68.26;97936.66;2076216;28;20198;-71
2024/01/23 10:26:35;;;;;;;14.35;2.40;;;;;;;-145.49;100.00;55703.94;2078774;28;20646;-71
2024/01/23 10:27:37;;;;;;;11.07;2.75;;;;;;;-145.49;100.00;55703.94;2079886;28;20716;-72
2024/01/23 10:28:43;;;;;;;14.18;2.70;;;;;;;10.92;66.29;97931.63;2082094;28;20296;-71
2024/01/23 10:29:45;;;;;;;16.33;2.50;;;;;;;8.02;72.51;97927.69;2078716;28;20221;-65
2024/01/23 10:30:46;;;;;;;11.82;3.20;;;;;;;7.59;73.94;97929.13;2076384;28;20210;-70
2024/01/23 10:31:48;;;;;;;17.60;2.95;;;;;;;7.38;74.81;97931.94;2075982;28;20208;-70
2024/01/23 10:32:49;;;;;;;12.68;2.80;;;;;;;7.16;75.50;97932.19;2080009;28;20323;-71
2024/01/23 10:33:52;;;;;;;16.05;2.72;;;;;;;7.11;75.11;97932.25;2080962;28;20205;-71
2024/01/23 10:34:54;;;;;;;25.00;2.67;;;;;;;7.62;74.06;97933.44;2081013;28;20258;-70
2024/01/23 10:35:55;;;;;;;18.27;3.33;;;;;;;8.07;73.96;97922.44;2082479;28;20862;-71
2024/01/23 10:36:58;;;;;;;23.10;2.90;;;;;;;8.10;72.19;97919.78;2082680;28;20196;-70
2024/01/23 10:38:02;;;;;;;17.20;2.25;;;;;;;7.70;72.54;97923.78;2080275;28;20230;-71
2024/01/23 10:39:04;;;;;;;20.67;3.08;;;;;;;7.64;73.87;97922.13;2081974;28;20233;-71
2024/01/23 10:40:11;;;;;;;19.17;2.33;;;;;;;8.79;70.66;97921.31;2081373;28;20272;-71
2024/01/23 10:41:15;;;;;;;25.85;3.95;;;;;;;7.97;72.22;97919.97;2081722;28;21196;-70
2024/01/23 10:42:18;;;;;;;15.50;2.58;;;;;;;7.29;73.23;97899.16;2080999;28;20544;-70
2024/01/23 10:43:21;;;;;;;19.00;2.53;;;;;;;7.75;73.41;97921.97;2077343;28;20680;-71
2024/01/23 10:44:25;;;;;;;20.08;2.60;;;;;;;8.79;71.49;97916.13;2069360;28;20194;-71
2024/01/23 10:45:29;;;;;;;13.35;2.17;;;;;;;9.53;67.85;97919.09;2075642;28;20636;-69
2024/01/23 10:46:30;;;;;;;19.20;2.42;;;;;;;9.82;68.50;97920.25;2069940;28;20864;-69
2024/01/23 10:47:32;;;;;;;16.48;3.00;;;;;;;10.33;66.12;97931.31;2073481;28;20197;-70
2024/01/23 10:48:33;;;;;;;16.55;2.75;;;;;;;9.66;67.75;97914.47;2074728;28;20190;-69
2024/01/23 10:49:36;;;;;;;18.65;3.20;;;;;;;8.72;69.72;97930.13;2072526;28;20857;-70
2024/01/23 10:50:38;;;;;;;14.10;2.75;;;;;;;8.18;71.48;97915.34;2079164;28;20228;-69
2024/01/23 10:51:44;;;;;;;26.38;3.05;;;;;;;7.97;72.05;97917.38;2075129;28;20197;-69
2024/01/23 10:52:47;;;;;;;9.85;2.65;;;;;;;8.01;71.44;97919.03;2073378;28;20236;-69
2024/01/23 10:54:03;;;;;;;9.25;2.10;;;;;;;8.06;71.39;97913.75;2071887;28;20200;-69
2024/01/23 10:55:06;;;;;;;12.57;2.60;;;;;;;8.70;70.25;97926.69;2081617;28;20223;-69
2024/01/23 10:56:13;;;;;;;20.95;3.17;;;;;;;7.82;71.82;97905.44;2074555;28;20226;-69
2024/01/23 10:57:22;;;;;;;20.65;2.90;;;;;;;8.10;69.94;97922.38;2073256;28;20225;-69
2024/01/23 10:58:31;;;;;;;13.95;2.55;;;;;;;9.19;66.67;97919.72;2075080;28;20197;-69
2024/01/23 10:59:34;;;;;;;10.65;2.17;;;;;;;8.37;69.11;97910.69;2071870;28;20277;-69
2024/01/23 11:00:36;;;;;;;17.20;2.80;;;;;;;8.05;70.69;97892.97;2075073;28;20213;-69
2024/01/23 11:01:41;;;;;;;9.32;2.15;;;;;;;8.48;69.87;97921.84;2075757;28;20205;-69
2024/01/23 11:02:52;;;;;;;15.82;3.42;;;;;;;9.06;67.82;97929.53;2071575;28;20218;-69
2024/01/23 11:03:55;;;;;;;9.45;1.98;;;;;;;9.77;66.08;97920.31;2075761;28;20252;-70
2024/01/23 11:04:58;;;;;;;14.48;3.75;;;;;;;10.08;65.17;97924.03;2083453;28;20225;-69
2024/01/23 11:06:25;;;;;;;22.55;3.10;;;;;;;10.55;64.53;97924.72;2084865;28;20203;-69
2024/01/23 11:07:34;;;;;;;14.63;2.53;;;;;;;10.86;63.35;97926.56;2081490;28;20201;-69
2024/01/23 11:08:45;;;;;;;13.95;2.30;;;;;;;10.67;63.53;97913.09;2077634;28;20194;-69
2024/01/23 11:10:31;;;;;;;12.55;2.40;;;;;;;10.83;62.67;97928.38;2074548;28;20252;-69
2024/01/23 11:11:40;;;;;;;18.88;2.90;;;;;;;10.88;61.37;97927.38;2072371;28;20226;-70
2024/01/23 11:12:59;;;;;;;15.40;3.10;;;;;;;10.26;62.97;97926.22;2078942;28;20840;-69
2024/01/23 11:14:12;;;;;;;19.58;3.30;;;;;;;10.82;62.47;97926.66;2076001;28;20197;-69
2024/01/23 11:15:16;;;;;;;18.30;3.20;;;;;;;10.68;62.72;97921.78;2073319;28;20256;-72
2024/01/23 11:16:17;;;;;;;18.67;2.13;;;;;;;10.69;61.99;97928.72;2072322;28;20202;-71
2024/01/23 11:17:20;;;;;;;15.85;2.58;;;;;;;10.21;61.54;97915.03;2072044;28;20233;-67
2024/01/23 11:18:32;;;;;;;15.95;2.80;;;;;;;10.28;62.16;97927.06;2071237;28;20385;-65
2024/01/23 11:19:46;;;;;;;10.18;2.00;;;;;;;10.79;61.54;97943.28;2071011;28;20198;-65
2024/01/23 11:21:11;;;;;;;17.92;3.35;;;;;;;10.29;61.93;97940.97;2069816;28;20255;-64
2024/01/23 11:22:21;;;;;;;14.45;3.00;;;;;;;10.48;61.46;97932.75;2068032;28;20198;-65
2024/01/23 11:23:23;;;;;;;15.90;2.95;;;;;;;10.71;61.01;97938.25;2075073;28;20193;-65
2024/01/23 11:24:38;;;;;;;16.33;2.63;;;;;;;11.17;60.34;97933.59;2074940;28;20208;-65
2024/01/23 11:26:00;;;;;;;11.70;3.53;;;;;;;10.86;58.92;97925.72;2072700;28;20229;-66
2024/01/23 11:27:05;;;;;;;16.33;3.40;;;;;;;10.46;60.26;97930.13;2073032;28;20789;-65
2024/01/23 11:28:08;;;;;;;13.43;2.03;;;;;;;11.16;60.41;97923.19;2075583;28;20567;-65
2024/01/23 11:29:13;;;;;;;13.57;2.47;;;;;;;10.81;59.75;97933.66;2075060;28;20623;-65
2024/01/23 11:30:18;;;;;;;13.40;2.78;;;;;;;10.40;61.41;97931.16;2073245;28;20763;-64
2024/01/23 11:31:22;;;;;;;12.38;2.55;;;;;;;11.06;60.39;97928.66;2072496;28;20204;-65
2024/01/23 11:32:26;;;;;;;9.32;2.80;;;;;;;11.21;59.56;97930.03;2071560;28;20291;-65
2024/01/23 11:33:32;;;;;;;16.05;3.17;;;;;;;11.36;60.10;97928.72;2072356;28;20214;-65
2024/01/23 11:34:38;;;;;;;11.50;2.45;;;;;;;10.59;59.42;97923.75;2070291;28;20646;-65
2024/01/23 11:36:11;;;;;;;26.33;3.92;;;;;;;10.69;60.08;97926.13;2068869;28;20221;-65
2024/01/23 11:37:28;;;;;;;16.73;2.40;;;;;;;10.41;59.88;97921.56;2074963;28;20206;-65
2024/01/23 11:38:44;;;;;;;11.23;2.60;;;;;;;10.11;60.43;97910.91;2076396;28;20231;-65
2024/01/23 11:39:46;;;;;;;15.05;2.10;;;;;;;10.51;60.23;97915.22;2073627;28;20315;-67
2024/01/23 11:40:54;;;;;;;14.57;2.80;;;;;;;10.31;59.99;97920.91;2071194;28;20194;-70
2024/01/23 11:41:58;;;;;;;15.98;3.60;;;;;;;9.96;60.91;97904.28;2072273;28;20205;-70
2024/01/23 11:43:04;;;;;;;30.50;3.90;;;;;;;10.08;61.80;97905.75;2074672;28;20213;-70
2024/01/23 11:44:12;;;;;;;14.48;2.60;;;;;;;9.49;61.90;97922.66;2070919;28;20571;-66
2024/01/23 11:45:38;;;;;;;18.52;3.10;;;;;;;9.41;62.37;97929.78;2063181;28;20364;-66
2024/01/23 11:46:43;;;;;;;10.82;2.13;;;;;;;9.55;62.66;97929.47;2065845;28;20647;-65
2024/01/23 11:47:44;;;;;;;17.00;2.33;;;;;;;9.93;61.95;97936.53;2076562;28;20233;-66
2024/01/23 11:48:48;;;;;;;5.35;1.90;;;;;;;10.05;61.30;97922.34;2076652;28;20202;-66
2024/01/23 11:49:49;;;;;;;9.50;2.00;;;;;;;10.33;60.90;97926.09;2069935;28;20299;-65
2024/01/23 11:50:53;;;;;;;16.35;2.90;;;;;;;10.33;60.91;97932.16;2075831;28;20206;-66
2024/01/23 11:51:56;;;;;;;11.65;2.85;;;;;;;10.22;61.28;97924.59;2074984;28;20848;-66
2024/01/23 11:52:59;;;;;;;18.35;2.78;;;;;;;10.45;60.91;97936.28;2073197;28;20328;-66
2024/01/23 11:54:07;;;;;;;16.27;2.10;;;;;;;10.57;60.88;97941.19;2072116;28;20206;-66
2024/01/23 11:55:09;;;;;;;23.00;3.15;;;;;;;11.20;60.45;97937.88;2072255;28;20272;-65
2024/01/23 11:56:12;;;;;;;10.60;2.72;;;;;;;11.36;59.68;97936.56;2073396;28;20693;-65
2024/01/23 11:57:14;;;;;;;17.77;2.80;;;;;;;11.26;59.67;97938.59;2066130;28;20591;-66
2024/01/23 11:58:16;;;;;;;16.80;1.85;;;;;;;10.98;60.51;97942.81;2066574;28;20336;-65
2024/01/23 11:59:17;;;;;;;14.98;2.28;;;;;;;10.83;59.78;97947.56;2074747;28;20209;-66
2024/01/23 12:00:19;;;;;;;14.68;2.50;;;;;;;10.91;60.22;97948.19;2082025;28;20278;-65
2024/01/23 12:01:23;;;;;;;14.90;3.45;;;;;;;10.77;60.90;97942.47;2080426;28;20256;-65
2024/01/23 12:02:25;;;;;;;11.73;2.33;;;;;;;10.39;61.42;97942.50;2071039;28;20207;-65
2024/01/23 12:03:27;;;;;;;10.57;2.22;;;;;;;9.39;62.32;97948.03;2072568;28;20616;-65
2024/01/23 12:04:29;;;;;;;11.75;2.15;;;;;;;9.02;64.14;97935.69;2072925;28;20208;-65
2024/01/23 12:05:31;;;;;;;16.30;2.40;;;;;;;8.65;65.87;97939.78;2067793;28;20813;-65
2024/01/23 12:06:33;;;;;;;10.73;2.67;;;;;;;9.32;65.08;97933.41;2073193;28;21071;-66
2024/01/23 12:07:39;;;;;;;16.65;1.83;;;;;;;9.67;63.57;97926.63;2072996;28;20201;-65
2024/01/23 12:08:41;;;;;;;16.15;2.20;;;;;;;9.84;62.74;97920.19;2071977;28;20194;-66
2024/01/23 12:09:42;;;;;;;10.40;2.28;;;;;;;9.48;63.55;97918.31;2069344;28;20218;-66
2024/01/23 12:10:44;;;;;;;14.05;2.30;;;;;;;9.22;64.81;97914.47;2068511;28;20198;-66
2024/01/23 12:11:47;;;;;;;12.45;1.70;;;;;;;9.07;64.72;97907.81;2071962;28;20285;-65
2024/01/23 12:12:55;;;;;;;8.77;2.60;;;;;;;9.27;65.02;97927.44;2072045;28;20796;-66
2024/01/23 12:13:58;;;;;;;9.90;2.47;;;;;;;9.54;64.83;97919.97;2072711;28;20312;-65
2024/01/23 12:14:59;;;;;;;14.90;3.10;;;;;;;9.95;62.72;97920.81;2063533;28;20631;-65
2024/01/23 12:16:01;;;;;;;18.67;3.15;;;;;;;10.42;61.54;97931.13;2073451;28;20193;-65
2024/01/23 12:17:04;;;;;;;12.10;2.35;;;;;;;10.49;61.74;97922.25;2073283;28;20226;-65
2024/01/23 12:18:16;;;;;;;9.32;2.25;;;;;;;10.52;61.68;97914.31;2074664;28;20280;-65
2024/01/23 12:19:18;;;;;;;13.68;2.72;;;;;;;10.38;61.38;97926.88;2071240;28;20198;-65
2024/01/23 12:20:20;;;;;;;12.65;2.58;;;;;;;10.10;61.94;97890.91;2071691;28;20574;-65
2024/01/23 12:21:21;;;;;;;6.45;1.98;;;;;;;10.04;62.66;97938.03;2068939;28;20198;-66
2024/01/23 12:22:23;;;;;;;15.65;2.00;;;;;;;9.70;63.57;97931.81;2072127;28;20228;-65
2024/01/23 12:23:25;;;;;;;13.10;2.08;;;;;;;8.98;65.60;97926.22;2073304;28;20198;-65
2024/01/23 12:24:27;;;;;;;18.58;3.33;;;;;;;8.55;67.08;97922.59;2081494;28;20200;-65
2024/01/23 12:25:28;;;;;;;14.65;1.85;;;;;;;8.44;67.27;97924.47;2081464;28;20211;-65
2024/01/23 12:26:31;;;;;;;12.48;2.17;;;;;;;8.02;68.35;97930.28;2072265;28;20216;-65
2024/01/23 12:27:33;;;;;;;13.95;2.25;;;;;;;8.05;68.63;97926.78;2070085;28;20281;-65
2024/01/23 12:28:36;;;;;;;13.70;2.40;;;;;;;7.77;69.95;97927.16;2072968;28;20214;-66
2024/01/23 12:29:39;;;;;;;9.77;2.22;;;;;;;7.60;70.70;97927.38;2066640;28;20252;-65
2024/01/23 12:30:44;;;;;;;17.70;2.63;;;;;;;7.49;70.98;97935.28;2071448;28;20201;-68
2024/01/23 12:31:46;;;;;;;13.07;2.45;;;;;;;7.26;71.60;97930.38;2070047;28;20193;-65
2024/01/23 12:32:48;;;;;;;11.25;2.05;;;;;;;7.11;72.48;97923.59;2070711;28;20280;-65
2024/01/23 12:33:50;;;;;;;10.70;2.25;;;;;;;7.48;71.60;97924.03;2069909;28;20198;-66
2024/01/23 12:34:51;;;;;;;12.95;2.38;;;;;;;7.44;71.76;97922.38;2069298;28;20291;-65
2024/01/23 12:35:53;;;;;;;9.48;2.90;;;;;;;7.20;71.90;97920.91;2067489;28;20210;-66
2024/01/23 12:36:59;;;;;;;11.63;2.50;;;;;;;7.14;72.12;97902.78;2079506;28;20769;-66
2024/01/23 12:38:02;;;;;;;19.85;2.40;;;;;;;7.18;72.55;97901.88;2078997;28;20250;-65
2024/01/23 12:39:04;;;;;;;14.68;2.65;;;;;;;7.00;72.72;97927.16;2073187;28;20227;-65
2024/01/23 12:40:12;;;;;;;7.85;2.30;;;;;;;7.11;72.55;97911.47;2070888;28;20223;-65
2024/01/23 12:41:13;;;;;;;17.00;2.53;;;;;;;7.06;72.99;97871.69;2071796;28;20642;-65
2024/01/23 12:42:15;;;;;;;12.25;2.00;;;;;;;7.23;71.29;97894.88;2071713;28;20205;-66
2024/01/23 12:43:18;;;;;;;19.23;2.67;;;;;;;7.56;71.46;97903.16;2070970;28;20190;-66
2024/01/23 12:44:20;;;;;;;23.02;2.97;;;;;;;7.45;71.45;97913.69;2075302;28;20279;-65
2024/01/23 12:45:22;;;;;;;15.18;2.72;;;;;;;7.16;71.91;97907.09;2073917;28;20727;-70
2024/01/23 12:46:26;;;;;;;16.17;2.40;;;;;;;6.97;72.63;97905.53;2075331;28;20223;-71
2024/01/23 12:47:32;;;;;;;16.25;3.38;;;;;;;6.78;73.04;97904.88;2065463;28;20191;-70
2024/01/23 12:48:33;;;;;;;10.13;2.33;;;;;;;6.65;74.20;97910.19;2074400;28;20236;-71
2024/01/23 12:49:36;;;;;;;14.50;2.17;;;;;;;6.47;74.36;97902.56;2072014;28;20349;-66
2024/01/23 12:50:38;;;;;;;16.10;3.35;;;;;;;6.43;75.15;97901.72;2073937;28;20694;-66
2024/01/23 12:51:40;;;;;;;20.85;2.88;;;;;;;6.37;74.83;97899.16;2075838;28;20206;-67
2024/01/23 12:52:41;;;;;;;7.97;1.50;;;;;;;6.29;75.32;97901.81;2073482;28;20199;-66
2024/01/23 12:53:43;;;;;;;15.15;2.95;;;;;;;6.15;75.62;97888.09;2073173;28;20205;-67
2024/01/23 12:54:45;;;;;;;17.08;2.55;;;;;;;6.24;76.55;97911.38;2070459;28;20263;-66
2024/01/23 12:55:47;;;;;;;11.73;2.08;;;;;;;6.24;76.89;97911.38;2070215;28;20241;-66
2024/01/23 12:56:48;;;;;;;12.90;2.53;;;;;;;6.15;76.69;97912.28;2072966;28;20200;-67
2024/01/23 12:57:50;;;;;;;11.85;2.22;;;;;;;6.07;76.64;97906.31;2073527;28;20202;-66
2024/01/23 12:58:52;;;;;;;14.10;2.58;;;;;;;6.01;77.16;97914.97;2071760;28;20201;-66
2024/01/23 12:59:53;;;;;;;10.52;2.50;;;;;;;6.06;77.71;97904.56;2074489;28;20270;-66
2024/01/23 13:00:55;;;;;;;11.80;1.80;;;;;;;6.03;77.86;97897.69;2075458;28;20295;-66
2024/01/23 13:01:57;;;;;;;18.25;2.25;;;;;;;5.96;78.23;97900.28;2075871;28;20645;-66
2024/01/23 13:02:59;;;;;;;15.32;2.53;;;;;;;5.73;78.10;97857.22;2070481;28;20248;-66
2024/01/23 13:04:00;;;;;;;17.77;2.58;;;;;;;5.82;78.81;97880.47;2069136;28;20257;-66
2024/01/23 13:05:02;;;;;;;9.57;2.22;;;;;;;5.83;79.16;97887.41;2074289;28;20282;-67
2024/01/23 13:06:08;;;;;;;20.30;3.03;;;;;;;5.78;79.47;97875.34;2074029;28;20203;-66
2024/01/23 13:07:10;;;;;;;17.00;2.47;;;;;;;5.83;79.66;97882.22;2073659;28;20200;-66
2024/01/23 13:08:12;;;;;;;13.43;2.33;;;;;;;5.82;79.35;97880.47;2072067;28;20206;-66
2024/01/23 13:09:14;;;;;;;15.23;2.00;;;;;;;5.83;79.52;97873.59;2073964;28;20197;-66
2024/01/23 13:10:16;;;;;;;14.50;2.03;;;;;;;5.70;79.17;97845.13;2072347;28;20673;-66
2024/01/23 13:11:19;;;;;;;9.20;2.78;;;;;;;5.80;79.64;97858.91;2075639;28;20205;-66
2024/01/23 13:12:21;;;;;;;14.15;3.58;;;;;;;5.75;80.06;97836.47;2074465;28;20207;-66
2024/01/23 13:13:22;;;;;;;14.23;2.15;;;;;;;5.89;79.76;97852.78;2074333;28;20202;-66
2024/01/23 13:14:24;;;;;;;19.00;2.08;;;;;;;5.86;79.70;97848.47;2071987;28;20256;-66
2024/01/23 13:15:26;;;;;;;20.48;3.35;;;;;;;5.94;80.03;97843.28;2071936;28;20268;-67
2024/01/23 13:24:29;;;;;;;16.20;2.53;;;;;;;5.58;80.83;97815.84;2097172;27;20559;-66
2024/01/23 13:25:31;;;;;;;9.80;1.85;;;;;;;5.73;80.53;97846.84;2089639;28;20227;-68
2024/01/23 13:26:32;;;;;;;16.70;2.17;;;;;;;5.80;80.03;97840.78;2088130;28;20204;-67
2024/01/23 13:27:35;;;;;;;17.08;2.58;;;;;;;5.72;79.91;97833.00;2088941;28;20200;-67
2024/01/23 13:28:36;;;;;;;9.43;2.00;;;;;;;5.87;79.88;97833.81;2089067;28;20200;-67
2024/01/23 13:29:38;;;;;;;11.73;2.97;;;;;;;5.92;80.04;97836.34;2086788;28;20212;-67
2024/01/23 13:30:41;;;;;;;9.98;2.15;;;;;;;5.93;79.69;97844.13;2085806;28;20200;-67
2024/01/23 13:31:45;;;;;;;10.10;1.85;;;;;;;5.95;79.80;97844.97;2086120;28;20270;-67
2024/01/23 13:32:57;;;;;;;16.05;2.25;;;;;;;6.01;80.29;97849.28;2085754;28;20205;-68
2024/01/23 13:33:58;;;;;;;17.92;2.35;;;;;;;5.97;80.10;97847.56;2086330;28;20200;-67
2024/01/23 13:35:00;;;;;;;19.45;2.95;;;;;;;5.93;79.52;97845.84;2087722;28;20465;-67
2024/01/23 13:36:02;;;;;;;12.68;2.10;;;;;;;5.75;80.44;97823.50;2087430;28;20680;-67
2024/01/23 13:37:07;;;;;;;12.57;2.28;;;;;;;5.89;80.03;97843.28;2091177;28;20192;-67
2024/01/23 13:48:10;;;;;;;12.27;2.03;;;;;;;5.50;81.48;97842.66;2089572;28;21062;-67
2024/01/23 13:49:12;;;;;;;13.50;2.08;;;;;;;5.53;81.35;97845.22;2089617;28;20204;-67
2024/01/23 13:50:16;;;;;;;14.18;2.33;;;;;;;5.53;81.05;97852.16;2085573;28;20281;-67
2024/01/23 13:58:20;;;;;;;16.48;2.90;;;;;;;5.47;81.11;97832.31;2106042;27;20569;-67
2024/01/23 13:59:21;;;;;;;10.38;2.90;;;;;;;5.65;81.59;97856.38;2107843;28;20248;-67
2024/01/23 14:00:25;;;;;;;13.95;3.45;;;;;;;5.56;81.19;97836.56;2098775;28;20593;-67